createdAt,value
2022-11-03T00:01:58.613Z,12.8
2022-11-03T00:04:16.453Z,15.6
2022-11-03T00:06:34.200Z,12.9
2022-11-03T00:08:51.911Z,13.6
2022-11-03T00:11:09.992Z,13.9
2022-11-03T00:13:27.715Z,13.5
2022-11-03T00:15:45.705Z,13.3
2022-11-03T00:18:03.329Z,13.2
2022-11-03T00:20:21.502Z,13.4
2022-11-03T00:22:39.056Z,14.7
2022-11-03T00:24:57.051Z,11.9
2022-11-03T00:27:14.980Z,14.3
2022-11-03T00:29:32.724Z,13.8
2022-11-03T00:31:50.419Z,13.4
2022-11-03T00:34:08.091Z,14.7
2022-11-03T00:36:25.965Z,13.5
2022-11-03T00:38:43.593Z,7.9
2022-11-03T00:41:01.391Z,10.6
2022-11-03T00:43:19.208Z,13.4
2022-11-03T00:45:37.172Z,14.8
2022-11-03T00:47:54.997Z,14.4
2022-11-03T00:50:12.948Z,13
2022-11-03T00:52:30.833Z,14.1
2022-11-03T00:54:51.224Z,13.3
2022-11-03T00:57:06.450Z,13.6
2022-11-03T00:59:24.201Z,13.8
2022-11-03T01:01:46.247Z,14.4
2022-11-03T01:03:59.651Z,12
2022-11-03T01:06:18.022Z,13.1
2022-11-03T01:08:35.453Z,14.3
2022-11-03T01:10:53.412Z,12.3
2022-11-03T01:13:11.077Z,10.8
2022-11-03T01:15:29.007Z,13.9
2022-11-03T01:17:46.777Z,14.8
2022-11-03T01:20:04.523Z,14.1
2022-11-03T01:22:22.513Z,14.4
2022-11-03T01:24:40.231Z,12.8
2022-11-03T01:26:58.165Z,12.4
2022-11-03T01:29:16.171Z,11.2
2022-11-03T01:31:33.575Z,12.9
2022-11-03T01:33:51.412Z,14.4
2022-11-03T01:36:09.132Z,13
2022-11-03T01:38:26.912Z,12.6
2022-11-03T01:40:44.391Z,9.3
2022-11-03T01:43:02.261Z,13.9
2022-11-03T01:45:20.060Z,14.9
2022-11-03T01:47:38.117Z,11.4
2022-11-03T01:49:55.760Z,13.6
2022-11-03T01:52:14.063Z,13
2022-11-03T01:54:31.434Z,15.4
2022-11-03T01:56:49.358Z,6.7
2022-11-03T01:59:07.084Z,13.4
2022-11-03T02:01:25.051Z,13.5
2022-11-03T02:03:42.547Z,8.8
2022-11-03T02:06:00.251Z,12
2022-11-03T02:08:18.280Z,13.8
2022-11-03T02:10:36.091Z,12.8
2022-11-03T02:12:54.018Z,12.6
2022-11-03T02:15:11.685Z,12.7
2022-11-03T02:17:29.704Z,13.7
2022-11-03T02:19:47.522Z,13.5
2022-11-03T02:22:05.145Z,12.9
2022-11-03T02:24:22.783Z,9.7
2022-11-03T02:26:40.592Z,12.8
2022-11-03T02:28:59.078Z,12.6
2022-11-03T02:31:16.418Z,13.1
2022-11-03T02:33:34.346Z,13.7
2022-11-03T02:35:52.067Z,13.4
2022-11-03T02:38:10.286Z,12.2
2022-11-03T02:40:27.754Z,13.9
2022-11-03T02:42:45.778Z,12.7
2022-11-03T02:45:03.541Z,13
2022-11-03T02:47:21.625Z,12.8
2022-11-03T02:49:39.085Z,10.8
2022-11-03T02:51:56.742Z,4.9
2022-11-03T02:54:14.763Z,11.7
2022-11-03T02:56:32.487Z,13.8
2022-11-03T02:58:50.566Z,13.8
2022-11-03T03:01:08.281Z,12.2
2022-11-03T03:03:26.107Z,12.9
2022-11-03T03:05:43.821Z,13.9
2022-11-03T03:08:01.621Z,11.1
2022-11-03T03:10:19.344Z,13.3
2022-11-03T03:12:36.960Z,10.7
2022-11-03T03:14:54.823Z,7.9
2022-11-03T03:17:12.499Z,13.9
2022-11-03T03:19:30.507Z,13
2022-11-03T03:21:48.250Z,13.4
2022-11-03T03:24:06.239Z,10.8
2022-11-03T03:26:23.821Z,12.9
2022-11-03T03:28:41.822Z,13.4
2022-11-03T03:30:59.583Z,12.9
2022-11-03T03:33:17.732Z,12.1
2022-11-03T03:35:39.446Z,13.3
2022-11-03T03:37:57.221Z,13
2022-11-03T03:40:14.945Z,13.6
2022-11-03T03:42:32.686Z,12.8
2022-11-03T03:44:50.404Z,13.2
2022-11-03T03:47:08.085Z,11.9
2022-11-03T03:49:25.701Z,7.6
2022-11-03T03:51:43.341Z,10.4
2022-11-03T03:54:01.044Z,12.2
2022-11-03T03:56:18.795Z,11.9
2022-11-03T03:58:36.630Z,13.4
2022-11-03T04:00:54.457Z,12.5
2022-11-03T04:03:12.131Z,13.6
2022-11-03T04:05:29.931Z,14.1
2022-11-03T04:07:47.687Z,11.4
2022-11-03T04:10:05.519Z,8.2
2022-11-03T04:12:22.894Z,13.1
2022-11-03T04:14:40.713Z,12.8
2022-11-03T04:16:58.419Z,11.9
2022-11-03T04:19:16.120Z,12.8
2022-11-03T04:21:33.671Z,6.7
2022-11-03T04:23:51.421Z,8.8
2022-11-03T04:26:09.198Z,8.5
2022-11-03T04:28:26.821Z,8.1
2022-11-03T04:30:44.601Z,13.7
2022-11-03T04:33:02.304Z,12.6
2022-11-03T04:35:20.048Z,4.2
2022-11-03T04:37:37.624Z,12.2
2022-11-03T04:39:55.444Z,12.5
2022-11-03T04:42:13.256Z,11.4
2022-11-03T04:44:30.970Z,11.3
2022-11-03T04:46:48.511Z,11.4
2022-11-03T04:49:06.209Z,12.3
2022-11-03T04:51:24.079Z,11.5
2022-11-03T04:53:41.781Z,12.7
2022-11-03T04:56:04.377Z,13.9
2022-11-03T04:58:17.372Z,12.9
2022-11-03T05:00:35.018Z,10.7
2022-11-03T05:02:54.817Z,11.6
2022-11-03T05:05:10.726Z,12.3
2022-11-03T05:07:28.491Z,10.7
2022-11-03T05:09:46.196Z,11.3
2022-11-03T05:12:04.309Z,10.9
2022-11-03T05:14:21.910Z,12.6
2022-11-03T05:16:39.804Z,8.1
2022-11-03T05:18:57.527Z,11.3
2022-11-03T05:21:15.520Z,10.8
2022-11-03T05:23:33.244Z,12.6
2022-11-03T05:25:51.211Z,12
2022-11-03T05:28:09.179Z,12.5
2022-11-03T05:30:26.427Z,9.3
2022-11-03T05:32:44.486Z,10.6
2022-11-03T05:35:02.140Z,9.6
2022-11-03T05:37:25.039Z,11.8
2022-11-03T05:39:37.825Z,12.8
2022-11-03T05:41:55.948Z,9.2
2022-11-03T05:44:13.574Z,13.2
2022-11-03T05:46:31.549Z,13.4
2022-11-03T05:48:49.240Z,13.1
2022-11-03T05:51:07.304Z,13.9
2022-11-03T05:53:24.930Z,13.7
2022-11-03T05:55:42.672Z,12.3
2022-11-03T05:58:00.713Z,13.6
2022-11-03T06:00:18.378Z,14.4
2022-11-03T06:02:37.116Z,14.5
2022-11-03T06:04:54.827Z,15.4
2022-11-03T06:07:12.893Z,12.7
2022-11-03T06:09:30.647Z,13.9
2022-11-03T06:11:48.611Z,13.3
2022-11-03T06:14:06.268Z,14.4
2022-11-03T06:16:24.129Z,15.3
2022-11-03T06:18:42.075Z,15
2022-11-03T06:20:59.837Z,16.9
2022-11-03T06:23:17.751Z,12.6
2022-11-03T06:25:35.451Z,15.6
2022-11-03T06:27:53.538Z,15.4
2022-11-03T06:30:11.187Z,18.1
2022-11-03T06:32:29.046Z,17.9
2022-11-03T06:34:46.609Z,17.3
2022-11-03T06:37:05.704Z,13.3
2022-11-03T06:39:22.179Z,19.6
2022-11-03T06:41:39.890Z,13.9
2022-11-03T06:43:57.872Z,20.8
2022-11-03T06:46:15.645Z,19.5
2022-11-03T06:48:33.413Z,18.9
2022-11-03T06:50:51.218Z,14.1
2022-11-03T06:53:09.471Z,18.4
2022-11-03T06:55:26.765Z,20.7
2022-11-03T06:57:44.666Z,20.8
2022-11-03T07:00:20.191Z,21.9
2022-11-03T07:02:33.986Z,18.1
2022-11-03T07:04:51.600Z,20.9
2022-11-03T07:07:09.172Z,20.5
2022-11-03T07:09:26.809Z,19.1
2022-11-03T07:11:44.526Z,21.7
2022-11-03T07:14:02.218Z,22.1
2022-11-03T07:16:20.025Z,22.4
2022-11-03T07:18:37.584Z,22.3
2022-11-03T07:20:55.276Z,22.4
2022-11-03T07:23:12.993Z,21.8
2022-11-03T07:25:30.472Z,22.4
2022-11-03T07:27:48.302Z,23.2
2022-11-03T07:30:05.785Z,24.1
2022-11-03T07:32:23.511Z,22.4
2022-11-03T07:34:40.974Z,27.2
2022-11-03T07:37:17.340Z,27.1
2022-11-03T07:39:34.777Z,24.6
2022-11-03T07:41:52.373Z,30.4
2022-11-03T07:44:09.832Z,32.8
2022-11-03T07:46:27.375Z,29.7
2022-11-03T07:48:45.000Z,32.2
2022-11-03T07:51:02.654Z,37.4
2022-11-03T07:53:24.861Z,38.9
2022-11-03T07:55:37.976Z,39.6
2022-11-03T07:57:56.051Z,40.6
2022-11-03T08:00:13.272Z,36.9
2022-11-03T08:02:30.966Z,42.1
2022-11-03T08:04:48.742Z,42.7
2022-11-03T08:07:06.117Z,38.3
2022-11-03T08:09:23.692Z,46.2
2022-11-03T08:11:40.957Z,45.9
2022-11-03T08:13:58.459Z,46.5
2022-11-03T08:16:15.711Z,47.3
2022-11-03T08:18:32.927Z,46.3
2022-11-03T08:20:50.516Z,47.8
2022-11-03T08:23:26.232Z,45.9
2022-11-03T08:25:39.632Z,46.6
2022-11-03T08:27:56.827Z,47.6
2022-11-03T08:30:14.456Z,47.8
2022-11-03T08:32:31.417Z,48.4
2022-11-03T08:34:48.541Z,47.4
2022-11-03T08:37:05.860Z,47.5
2022-11-03T08:39:23.179Z,48.6
2022-11-03T08:41:40.295Z,47.6
2022-11-03T08:43:57.587Z,47.5
2022-11-03T08:46:17.932Z,47.9
2022-11-03T08:48:31.913Z,50.8
2022-11-03T08:50:49.024Z,45.2
2022-11-03T08:53:06.254Z,49.3
2022-11-03T08:55:23.675Z,43.3
2022-11-03T08:57:40.948Z,42.6
2022-11-03T08:59:58.456Z,42.9
2022-11-03T09:02:15.926Z,42.9
2022-11-03T09:04:33.333Z,41.6
2022-11-03T09:06:50.804Z,42.1
2022-11-03T09:10:47.886Z,42.6
2022-11-03T09:13:05.658Z,42.9
2022-11-03T09:15:23.061Z,43.6
2022-11-03T09:17:41.908Z,43.8
2022-11-03T09:19:58.065Z,43.6
2022-11-03T09:22:15.890Z,42.9
2022-11-03T09:24:33.399Z,43.1
2022-11-03T09:26:51.029Z,42.9
2022-11-03T09:29:08.584Z,42
2022-11-03T09:31:45.651Z,43.5
2022-11-03T09:34:02.936Z,43.3
2022-11-03T09:36:20.516Z,43.7
2022-11-03T09:38:38.057Z,43.7
2022-11-03T09:40:55.576Z,41.9
2022-11-03T09:43:28.222Z,43.1
2022-11-03T09:45:45.759Z,43.4
2022-11-03T09:48:03.366Z,42.3
2022-11-03T09:50:21.014Z,42.9
2022-11-03T09:52:38.416Z,44.4
2022-11-03T09:54:56.204Z,43.8
2022-11-03T09:57:13.873Z,43.5
2022-11-03T09:59:31.144Z,44.1
2022-11-03T10:01:48.931Z,44.3
2022-11-03T10:04:06.274Z,43.5
2022-11-03T10:06:23.759Z,43.4
2022-11-03T10:08:41.469Z,43.4
2022-11-03T10:10:59.255Z,42.7
2022-11-03T10:13:16.622Z,42.3
2022-11-03T10:15:34.242Z,40.5
2022-11-03T10:17:51.798Z,40.6
2022-11-03T10:20:09.362Z,41.5
2022-11-03T10:22:27.025Z,41.6
2022-11-03T10:24:44.585Z,41.7
2022-11-03T10:27:02.157Z,40.9
2022-11-03T10:31:48.246Z,41.1
2022-11-03T10:34:05.766Z,41.6
2022-11-03T10:36:23.494Z,41.6
2022-11-03T10:38:41.058Z,42
2022-11-03T10:41:19.460Z,42.5
2022-11-03T10:43:36.909Z,42.8
2022-11-03T10:45:54.586Z,41.8
2022-11-03T10:48:36.204Z,39.9
2022-11-03T10:50:53.876Z,39.8
2022-11-03T10:53:11.624Z,40.7
2022-11-03T10:55:29.191Z,41.1
2022-11-03T10:57:50.461Z,41.5
2022-11-03T11:00:04.388Z,41.3
2022-11-03T11:02:22.058Z,40.4
2022-11-03T11:04:39.753Z,40
2022-11-03T11:06:57.273Z,39.6
2022-11-03T11:09:14.980Z,38.9
2022-11-03T11:11:32.600Z,35.5
2022-11-03T11:13:50.539Z,32.4
2022-11-03T11:16:07.831Z,29.4
2022-11-03T11:18:25.554Z,27.6
2022-11-03T11:20:43.109Z,25.8
2022-11-03T11:23:00.724Z,25.1
2022-11-03T11:25:18.278Z,24.4
2022-11-03T11:27:35.906Z,24.6
2022-11-03T11:29:53.676Z,23.8
2022-11-03T11:32:11.176Z,23.5
2022-11-03T11:34:28.795Z,22.9
2022-11-03T11:36:46.477Z,22.3
2022-11-03T11:39:04.097Z,22.7
2022-11-03T11:41:21.712Z,22.9
2022-11-03T11:43:39.412Z,21.9
2022-11-03T11:45:56.989Z,21.4
2022-11-03T11:48:18.632Z,21.9
2022-11-03T11:52:50.002Z,20.1
2022-11-03T11:55:20.215Z,21.8
2022-11-03T11:57:37.844Z,20.6
2022-11-03T12:02:13.059Z,21.3
2022-11-03T12:04:30.671Z,20.4
2022-11-03T12:06:48.413Z,20.1
2022-11-03T12:09:05.981Z,20.3
2022-11-03T12:11:23.632Z,19.6
2022-11-03T12:13:41.343Z,20.8
2022-11-03T12:15:58.920Z,19.1
2022-11-03T12:18:16.474Z,20.7
2022-11-03T12:20:34.149Z,19.8
2022-11-03T12:22:51.768Z,18.8
2022-11-03T12:25:09.762Z,18.8
2022-11-03T12:27:26.975Z,17.6
2022-11-03T12:29:44.589Z,18.2
2022-11-03T12:32:02.188Z,17.3
2022-11-03T12:34:22.054Z,17.8
2022-11-03T12:36:39.757Z,21.8
2022-11-03T12:38:57.331Z,19.3
2022-11-03T12:41:14.931Z,19.1
2022-11-03T12:43:32.600Z,18.4
2022-11-03T12:45:50.352Z,17.7
2022-11-03T12:48:07.888Z,18.9
2022-11-03T12:50:25.578Z,16.2
2022-11-03T12:52:43.151Z,17.8
2022-11-03T12:55:00.782Z,16.9
2022-11-03T12:59:36.090Z,19.8
2022-11-03T13:01:53.741Z,19
2022-11-03T13:04:11.289Z,18.6
2022-11-03T13:06:28.893Z,18.3
2022-11-03T13:08:47.767Z,18.1
2022-11-03T13:11:04.347Z,18.1
2022-11-03T13:15:39.468Z,17.4
2022-11-03T13:18:14.527Z,17.8
2022-11-03T13:20:32.218Z,16.8
2022-11-03T13:22:49.851Z,17.5
2022-11-03T13:25:07.454Z,17.4
2022-11-03T13:27:25.022Z,16.8
2022-11-03T13:29:42.644Z,15.5
2022-11-03T13:32:00.330Z,12.5
2022-11-03T13:34:17.924Z,16.6
2022-11-03T13:36:35.921Z,14.7
2022-11-03T13:38:53.331Z,17.6
2022-11-03T13:41:29.685Z,15.1
2022-11-03T13:43:46.670Z,16.4
2022-11-03T13:46:04.718Z,16
2022-11-03T13:52:18.167Z,17.3
2022-11-03T13:56:21.086Z,13.6
2022-11-03T14:00:03.528Z,15.8
2022-11-03T14:06:01.462Z,15
2022-11-03T14:08:19.591Z,17.4
2022-11-03T14:10:36.740Z,16.9
2022-11-03T14:12:54.662Z,17.1
2022-11-03T14:15:11.990Z,14.9
2022-11-03T14:17:29.668Z,14.5
2022-11-03T14:19:51.962Z,16.1
2022-11-03T14:22:04.999Z,15.1
2022-11-03T14:24:22.546Z,16.4
2022-11-03T14:26:56.673Z,13.7
2022-11-03T14:29:14.255Z,13.4
2022-11-03T14:31:32.008Z,12.7
2022-11-03T14:33:50.284Z,15.9
2022-11-03T14:36:07.215Z,13.4
2022-11-03T14:38:25.775Z,13.3
2022-11-03T14:40:42.588Z,15.8
2022-11-03T14:43:00.150Z,13.8
2022-11-03T14:45:17.838Z,14.2
2022-11-03T14:47:35.498Z,12.5
2022-11-03T14:49:53.224Z,14.6
2022-11-03T14:52:10.765Z,11.5
2022-11-03T14:54:28.386Z,14.4
2022-11-03T14:56:46.104Z,14.3
2022-11-03T14:59:03.744Z,14.1
2022-11-03T15:01:21.463Z,12.7
2022-11-03T15:03:38.920Z,13.3
2022-11-03T15:05:57.402Z,11.3
2022-11-03T15:08:14.098Z,12.6
2022-11-03T15:10:31.627Z,18.2
2022-11-03T15:12:49.007Z,17.6
2022-11-03T15:15:06.471Z,17.8
2022-11-03T15:17:23.756Z,17.8
2022-11-03T15:19:41.125Z,17.9
2022-11-03T15:21:58.514Z,15.9
2022-11-03T15:27:59.055Z,17.4
2022-11-03T15:30:16.399Z,17.3
2022-11-03T15:32:36.367Z,17.4
2022-11-03T15:34:51.358Z,17.1
2022-11-03T15:37:08.638Z,17.6
2022-11-03T15:39:25.881Z,17.1
2022-11-03T15:41:43.245Z,16.8
2022-11-03T15:46:18.165Z,17.4
2022-11-03T15:48:35.403Z,17.3
2022-11-03T15:50:53.023Z,17.4
2022-11-03T15:53:10.632Z,15.4
2022-11-03T15:55:28.311Z,15.6
2022-11-03T15:57:45.866Z,15.9
2022-11-03T16:00:03.388Z,13.8
2022-11-03T16:02:39.981Z,16.4
2022-11-03T16:04:47.866Z,15.1
2022-11-03T16:07:24.242Z,14.6
2022-11-03T16:09:42.028Z,15.8
2022-11-03T16:11:59.907Z,15.8
2022-11-03T16:14:17.421Z,15.9
2022-11-03T16:16:35.420Z,14.5
2022-11-03T16:18:53.044Z,15.7
2022-11-03T16:21:10.909Z,16.4
2022-11-03T16:23:28.584Z,16.4
2022-11-03T16:25:46.812Z,15.8
2022-11-03T16:28:03.907Z,13
2022-11-03T16:30:21.580Z,13.6
2022-11-03T16:32:39.268Z,17.1
2022-11-03T16:34:57.365Z,16.5
2022-11-03T16:37:14.813Z,16.4
2022-11-03T16:39:32.479Z,15.8
2022-11-03T16:41:50.511Z,15.6
2022-11-03T16:44:08.077Z,15.3
2022-11-03T16:46:25.904Z,15.1
2022-11-03T16:48:43.604Z,15.3
2022-11-03T16:51:01.295Z,15.4
2022-11-03T16:53:19.103Z,15.3
2022-11-03T16:55:36.824Z,16.6
2022-11-03T16:57:54.493Z,15.3
2022-11-03T17:00:12.152Z,14.9
2022-11-03T17:02:30.150Z,15.2
2022-11-03T17:04:47.645Z,14.5
2022-11-03T17:07:05.637Z,14.9
2022-11-03T17:09:40.398Z,14.9
2022-11-03T17:11:58.091Z,15
2022-11-03T17:14:15.790Z,15.8
2022-11-03T17:16:33.392Z,15.5
2022-11-03T17:18:51.049Z,15.3
2022-11-03T17:21:08.717Z,14.9
2022-11-03T17:23:26.403Z,14.9
2022-11-03T17:25:44.138Z,14.4
2022-11-03T17:28:01.686Z,15.1
2022-11-03T17:30:19.213Z,14.8
2022-11-03T17:32:36.874Z,14.3
2022-11-03T17:34:54.545Z,14.2
2022-11-03T17:37:13.064Z,14.6
2022-11-03T17:39:29.952Z,14.8
2022-11-03T17:41:48.169Z,14.1
2022-11-03T17:44:05.195Z,13.6
2022-11-03T17:46:22.983Z,13.4
2022-11-03T17:48:40.627Z,13.5
2022-11-03T17:50:59.659Z,13.8
2022-11-03T17:53:16.399Z,13.9
2022-11-03T17:55:33.870Z,13.9
2022-11-03T17:58:15.596Z,13.8
2022-11-03T18:00:33.328Z,14
2022-11-03T18:02:51.535Z,14.4
2022-11-03T18:05:08.781Z,15.1
2022-11-03T18:07:26.657Z,13.3
2022-11-03T18:09:44.433Z,14.3
2022-11-03T18:12:02.305Z,14.3
2022-11-03T18:14:20.065Z,13.3
2022-11-03T18:16:37.641Z,13.7
2022-11-03T18:18:55.483Z,13.5
2022-11-03T18:21:13.170Z,12.7
2022-11-03T18:23:31.185Z,15.1
2022-11-03T18:25:48.779Z,13.6
2022-11-03T18:28:07.039Z,12.9
2022-11-03T18:30:24.384Z,14.3
2022-11-03T18:32:42.349Z,13.3
2022-11-03T18:34:59.926Z,13.1
2022-11-03T18:37:17.587Z,13.3
2022-11-03T18:39:35.277Z,13.9
2022-11-03T18:41:52.984Z,15.5
2022-11-03T18:44:11.562Z,14.3
2022-11-03T18:46:28.388Z,11.1
2022-11-03T18:48:46.615Z,13.4
2022-11-03T18:51:03.934Z,14.8
2022-11-03T18:53:21.818Z,10.6
2022-11-03T18:55:39.547Z,13.6
2022-11-03T18:57:58.756Z,13.4
2022-11-03T19:00:16.395Z,13.1
2022-11-03T19:02:34.046Z,13.4
2022-11-03T19:04:51.726Z,12.1
2022-11-03T19:07:09.375Z,12.6
2022-11-03T19:09:27.413Z,7.4
2022-11-03T19:11:44.489Z,6.9
2022-11-03T19:14:02.116Z,12.8
2022-11-03T19:16:19.775Z,9
2022-11-03T19:18:55.797Z,12.3
2022-11-03T19:21:13.400Z,12.4
2022-11-03T19:23:31.073Z,12.9
2022-11-03T19:25:48.617Z,11.3
2022-11-03T19:28:06.332Z,13.9
2022-11-03T19:30:23.967Z,13.3
2022-11-03T19:32:41.721Z,13.6
2022-11-03T19:34:59.347Z,11.4
2022-11-03T19:37:17.243Z,14.3
2022-11-03T19:39:35.015Z,12
2022-11-03T19:41:52.899Z,13
2022-11-03T19:44:10.535Z,12.4
2022-11-03T19:46:28.268Z,12.3
2022-11-03T19:49:06.540Z,12.6
2022-11-03T19:51:24.186Z,12.8
2022-11-03T19:53:46.039Z,11.2
2022-11-03T19:55:59.514Z,11.7
2022-11-03T19:58:17.192Z,11.5
2022-11-03T20:00:34.777Z,12.3
2022-11-03T20:02:52.578Z,12
2022-11-03T20:05:10.085Z,12.4
2022-11-03T20:07:31.389Z,11.1
2022-11-03T20:09:45.325Z,11.6
2022-11-03T20:12:03.003Z,12.9
2022-11-03T20:14:20.770Z,12.6
2022-11-03T20:16:38.448Z,12.6
2022-11-03T20:18:56.040Z,12.9
2022-11-03T20:21:13.607Z,12.4
2022-11-03T20:23:33.141Z,8.1
2022-11-03T20:25:49.107Z,12.5
2022-11-03T20:28:06.428Z,13.3
2022-11-03T20:30:24.043Z,13
2022-11-03T20:32:41.622Z,13.7
2022-11-03T20:34:59.301Z,13.5
2022-11-03T20:37:17.107Z,12
2022-11-03T20:39:34.728Z,13.3
2022-11-03T20:41:52.463Z,12.3
2022-11-03T20:44:10.057Z,12.6
2022-11-03T20:46:27.765Z,12
2022-11-03T20:48:45.292Z,12
2022-11-03T20:51:02.943Z,10.3
2022-11-03T20:53:20.522Z,10
2022-11-03T20:55:38.273Z,12.7
2022-11-03T20:57:55.974Z,11.8
2022-11-03T21:00:13.633Z,11.9
2022-11-03T21:02:31.280Z,12.4
2022-11-03T21:05:10.919Z,12.2
2022-11-03T21:07:28.617Z,11.3
2022-11-03T21:09:46.250Z,12.1
2022-11-03T21:12:04.001Z,11.9
2022-11-03T21:14:21.639Z,11.6
2022-11-03T21:16:55.981Z,12.2
2022-11-03T21:19:13.394Z,12.6
2022-11-03T21:21:31.173Z,12.2
2022-11-03T21:23:58.800Z,9.6
2022-11-03T21:26:16.506Z,11.3
2022-11-03T21:28:34.219Z,11.1
2022-11-03T21:31:01.544Z,12
2022-11-03T21:33:19.222Z,11.8
2022-11-03T21:35:36.984Z,10.9
2022-11-03T21:37:54.656Z,11.4
2022-11-03T21:40:12.275Z,11.3
2022-11-03T21:42:29.987Z,11.3
2022-11-03T21:44:47.677Z,11.4
2022-11-03T21:47:05.516Z,11.7
2022-11-03T21:49:23.125Z,12
2022-11-03T21:51:40.815Z,11.4
2022-11-03T21:53:58.487Z,11.7
2022-11-03T21:56:16.194Z,11.8
2022-11-03T21:58:33.879Z,11.6
2022-11-03T22:00:51.624Z,11.6
2022-11-03T22:03:09.561Z,11.9
2022-11-03T22:05:26.786Z,10.6
2022-11-03T22:07:44.702Z,11.1
2022-11-03T22:10:02.192Z,12.4
2022-11-03T22:12:19.933Z,11.6
2022-11-03T22:14:37.605Z,11.5
2022-11-03T22:16:55.181Z,11.4
2022-11-03T22:19:12.827Z,9.3
2022-11-03T22:21:30.408Z,11.4
2022-11-03T22:23:47.942Z,9
2022-11-03T22:26:05.562Z,11.6
2022-11-03T22:28:23.349Z,11.6
2022-11-03T22:30:41.132Z,11.2
2022-11-03T22:32:58.688Z,11
2022-11-03T22:35:16.254Z,8.6
2022-11-03T22:39:51.573Z,10.9
2022-11-03T22:42:09.253Z,6.9
2022-11-03T22:44:26.794Z,9.6
2022-11-03T22:46:49.635Z,11.3
2022-11-03T22:49:02.240Z,10.4
2022-11-03T22:51:19.943Z,10.9
2022-11-03T22:53:37.798Z,10.8
2022-11-03T22:55:55.245Z,8.3
2022-11-03T22:58:12.985Z,10.4
2022-11-03T23:00:30.576Z,10.9
2022-11-03T23:02:48.236Z,7
2022-11-03T23:05:05.808Z,13.9
2022-11-03T23:07:27.091Z,10.6
2022-11-03T23:09:41.196Z,10.4
2022-11-03T23:11:58.823Z,10.6
2022-11-03T23:14:16.409Z,7.7
2022-11-03T23:16:34.167Z,10.8
2022-11-03T23:18:51.888Z,10.4
2022-11-03T23:21:09.607Z,10.4
2022-11-03T23:23:27.277Z,10.1
2022-11-03T23:25:44.956Z,9.8
2022-11-03T23:28:02.618Z,10.1
2022-11-03T23:30:20.942Z,10.5
2022-11-03T23:32:38.080Z,10.4
2022-11-03T23:34:55.838Z,10.7
2022-11-03T23:37:13.533Z,10.6
2022-11-03T23:39:31.490Z,10.6
2022-11-03T23:41:48.962Z,10.6
2022-11-03T23:44:06.376Z,4
2022-11-03T23:46:24.055Z,9.8
2022-11-03T23:48:41.777Z,10.6
2022-11-03T23:50:59.227Z,8.8
2022-11-03T23:53:16.926Z,9.9
2022-11-03T23:55:34.676Z,10.6
2022-11-03T23:57:52.541Z,9.7
